sensor_id;sensor_type;location;lat;lon;timestamp;temperature;humidity
10964;DHT22;5534;48.784;9.190;2023-07-28T00:02:04;19.60;99.90
10964;DHT22;5534;48.784;9.190;2023-07-28T00:04:30;19.60;99.90
10964;DHT22;5534;48.784;9.190;2023-07-28T00:06:55;19.60;99.90
10964;DHT22;5534;48.784;9.190;2023-07-28T00:09:21;19.60;99.90
10964;DHT22;5534;48.784;9.190;2023-07-28T00:11:48;19.60;99.90
10964;DHT22;5534;48.784;9.190;2023-07-28T00:14:14;19.60;99.90
10964;DHT22;5534;48.784;9.190;2023-07-28T00:16:40;19.60;99.90
10964;DHT22;5534;48.784;9.190;2023-07-28T00:19:06;19.60;99.90
10964;DHT22;5534;48.784;9.190;2023-07-28T00:21:32;19.50;99.90
10964;DHT22;5534;48.784;9.190;2023-07-28T00:23:57;19.50;99.90
10964;DHT22;5534;48.784;9.190;2023-07-28T00:26:23;19.50;99.90
10964;DHT22;5534;48.784;9.190;2023-07-28T00:28:49;19.40;99.90
10964;DHT22;5534;48.784;9.190;2023-07-28T00:31:15;19.50;99.90
10964;DHT22;5534;48.784;9.190;2023-07-28T00:33:40;19.40;99.90
10964;DHT22;5534;48.784;9.190;2023-07-28T00:36:07;19.50;99.90
10964;DHT22;5534;48.784;9.190;2023-07-28T00:38:33;19.30;99.90
10964;DHT22;5534;48.784;9.190;2023-07-28T00:40:59;19.30;99.90
10964;DHT22;5534;48.784;9.190;2023-07-28T00:43:24;19.40;99.90
10964;DHT22;5534;48.784;9.190;2023-07-28T00:45:50;19.50;99.90
10964;DHT22;5534;48.784;9.190;2023-07-28T00:48:17;19.60;99.90
10964;DHT22;5534;48.784;9.190;2023-07-28T00:50:47;19.70;99.90
10964;DHT22;5534;48.784;9.190;2023-07-28T00:53:14;19.70;99.90
10964;DHT22;5534;48.784;9.190;2023-07-28T00:55:41;19.50;99.90
10964;DHT22;5534;48.784;9.190;2023-07-28T00:58:08;19.50;99.90
10964;DHT22;5534;48.784;9.190;2023-07-28T01:00:34;19.40;99.90
10964;DHT22;5534;48.784;9.190;2023-07-28T01:03:00;19.30;99.90
10964;DHT22;5534;48.784;9.190;2023-07-28T01:05:33;19.30;99.90
10964;DHT22;5534;48.784;9.190;2023-07-28T01:08:30;19.20;99.90
10964;DHT22;5534;48.784;9.190;2023-07-28T01:10:54;19.20;99.90
10964;DHT22;5534;48.784;9.190;2023-07-28T01:13:20;19.20;99.90
10964;DHT22;5534;48.784;9.190;2023-07-28T01:15:47;19.30;99.90
10964;DHT22;5534;48.784;9.190;2023-07-28T01:18:13;19.40;99.90
10964;DHT22;5534;48.784;9.190;2023-07-28T01:20:39;19.30;99.90
10964;DHT22;5534;48.784;9.190;2023-07-28T01:28:13;19.20;99.90
10964;DHT22;5534;48.784;9.190;2023-07-28T01:30:39;19.20;99.90
10964;DHT22;5534;48.784;9.190;2023-07-28T01:33:08;19.20;99.90
10964;DHT22;5534;48.784;9.190;2023-07-28T01:35:36;19.10;99.90
10964;DHT22;5534;48.784;9.190;2023-07-28T01:38:03;19.00;99.90
10964;DHT22;5534;48.784;9.190;2023-07-28T01:40:29;19.00;99.90
10964;DHT22;5534;48.784;9.190;2023-07-28T01:42:55;19.00;99.90
10964;DHT22;5534;48.784;9.190;2023-07-28T01:45:20;19.10;99.90
10964;DHT22;5534;48.784;9.190;2023-07-28T01:47:46;19.20;99.90
10964;DHT22;5534;48.784;9.190;2023-07-28T01:50:12;19.30;99.90
10964;DHT22;5534;48.784;9.190;2023-07-28T01:52:37;19.30;99.90
10964;DHT22;5534;48.784;9.190;2023-07-28T01:55:04;19.40;99.90
10964;DHT22;5534;48.784;9.190;2023-07-28T01:57:33;19.40;99.90
10964;DHT22;5534;48.784;9.190;2023-07-28T01:59:59;19.40;99.90
10964;DHT22;5534;48.784;9.190;2023-07-28T02:02:25;19.20;99.90
10964;DHT22;5534;48.784;9.190;2023-07-28T02:04:51;18.90;99.90
10964;DHT22;5534;48.784;9.190;2023-07-28T02:07:17;18.60;99.90
10964;DHT22;5534;48.784;9.190;2023-07-28T02:09:43;18.40;99.90
10964;DHT22;5534;48.784;9.190;2023-07-28T02:12:09;18.50;99.90
10964;DHT22;5534;48.784;9.190;2023-07-28T02:14:34;18.50;99.90
10964;DHT22;5534;48.784;9.190;2023-07-28T02:17:00;18.50;99.90
10964;DHT22;5534;48.784;9.190;2023-07-28T02:19:26;18.60;99.90
10964;DHT22;5534;48.784;9.190;2023-07-28T02:21:52;18.50;99.90
10964;DHT22;5534;48.784;9.190;2023-07-28T02:24:18;18.70;99.90
10964;DHT22;5534;48.784;9.190;2023-07-28T02:26:43;18.80;99.90
10964;DHT22;5534;48.784;9.190;2023-07-28T02:29:09;18.70;99.90
10964;DHT22;5534;48.784;9.190;2023-07-28T02:31:35;18.60;99.90
10964;DHT22;5534;48.784;9.190;2023-07-28T02:34:00;18.50;99.90
10964;DHT22;5534;48.784;9.190;2023-07-28T02:36:26;18.50;99.90
10964;DHT22;5534;48.784;9.190;2023-07-28T02:38:52;18.40;99.90
10964;DHT22;5534;48.784;9.190;2023-07-28T02:41:17;18.50;99.90
10964;DHT22;5534;48.784;9.190;2023-07-28T02:43:45;18.40;99.90
10964;DHT22;5534;48.784;9.190;2023-07-28T02:46:11;18.60;99.90
10964;DHT22;5534;48.784;9.190;2023-07-28T02:48:37;18.60;99.90
10964;DHT22;5534;48.784;9.190;2023-07-28T02:51:02;19.00;99.90
10964;DHT22;5534;48.784;9.190;2023-07-28T02:53:28;19.10;99.90
10964;DHT22;5534;48.784;9.190;2023-07-28T02:55:54;19.20;99.90
10964;DHT22;5534;48.784;9.190;2023-07-28T02:58:21;19.20;99.90
10964;DHT22;5534;48.784;9.190;2023-07-28T03:00:47;19.30;99.90
10964;DHT22;5534;48.784;9.190;2023-07-28T03:03:13;19.30;99.90
10964;DHT22;5534;48.784;9.190;2023-07-28T03:05:39;19.30;99.90
10964;DHT22;5534;48.784;9.190;2023-07-28T03:08:06;19.30;99.90
10964;DHT22;5534;48.784;9.190;2023-07-28T03:10:32;19.30;99.90
10964;DHT22;5534;48.784;9.190;2023-07-28T03:12:58;19.30;99.90
10964;DHT22;5534;48.784;9.190;2023-07-28T03:15:24;19.30;99.90
10964;DHT22;5534;48.784;9.190;2023-07-28T03:17:50;19.20;99.90
10964;DHT22;5534;48.784;9.190;2023-07-28T03:20:16;19.20;99.90
10964;DHT22;5534;48.784;9.190;2023-07-28T03:22:42;19.10;99.90
10964;DHT22;5534;48.784;9.190;2023-07-28T03:25:09;19.20;99.90
10964;DHT22;5534;48.784;9.190;2023-07-28T03:27:35;19.30;99.90
10964;DHT22;5534;48.784;9.190;2023-07-28T03:30:01;19.20;99.90
10964;DHT22;5534;48.784;9.190;2023-07-28T03:32:26;19.20;99.90
10964;DHT22;5534;48.784;9.190;2023-07-28T03:34:52;19.20;99.90
10964;DHT22;5534;48.784;9.190;2023-07-28T03:37:18;19.30;99.90
10964;DHT22;5534;48.784;9.190;2023-07-28T03:39:44;19.30;99.90
10964;DHT22;5534;48.784;9.190;2023-07-28T03:42:10;19.30;99.90
10964;DHT22;5534;48.784;9.190;2023-07-28T03:44:36;19.30;99.90
10964;DHT22;5534;48.784;9.190;2023-07-28T03:47:07;19.20;99.90
10964;DHT22;5534;48.784;9.190;2023-07-28T03:49:33;19.00;99.90
10964;DHT22;5534;48.784;9.190;2023-07-28T03:51:59;18.90;99.90
10964;DHT22;5534;48.784;9.190;2023-07-28T03:54:25;18.80;99.90
10964;DHT22;5534;48.784;9.190;2023-07-28T03:56:51;18.70;99.90
10964;DHT22;5534;48.784;9.190;2023-07-28T03:59:17;18.70;99.90
10964;DHT22;5534;48.784;9.190;2023-07-28T04:01:42;18.80;99.90
10964;DHT22;5534;48.784;9.190;2023-07-28T04:04:08;18.90;99.90
10964;DHT22;5534;48.784;9.190;2023-07-28T04:06:48;18.90;99.90
10964;DHT22;5534;48.784;9.190;2023-07-28T04:09:19;18.90;99.90
10964;DHT22;5534;48.784;9.190;2023-07-28T04:11:45;19.00;99.90
10964;DHT22;5534;48.784;9.190;2023-07-28T04:14:11;18.90;99.90
10964;DHT22;5534;48.784;9.190;2023-07-28T04:16:37;18.90;99.90
10964;DHT22;5534;48.784;9.190;2023-07-28T04:19:03;19.10;99.90
10964;DHT22;5534;48.784;9.190;2023-07-28T04:21:29;19.10;99.90
10964;DHT22;5534;48.784;9.190;2023-07-28T04:23:55;19.10;99.90
10964;DHT22;5534;48.784;9.190;2023-07-28T04:26:22;19.20;99.90
10964;DHT22;5534;48.784;9.190;2023-07-28T04:28:48;19.20;99.90
10964;DHT22;5534;48.784;9.190;2023-07-28T04:31:14;19.30;99.90
10964;DHT22;5534;48.784;9.190;2023-07-28T04:33:43;19.30;99.90
10964;DHT22;5534;48.784;9.190;2023-07-28T04:36:09;19.30;99.90
10964;DHT22;5534;48.784;9.190;2023-07-28T04:38:35;19.40;99.90
10964;DHT22;5534;48.784;9.190;2023-07-28T04:41:01;19.50;99.90
10964;DHT22;5534;48.784;9.190;2023-07-28T04:43:27;19.50;99.90
10964;DHT22;5534;48.784;9.190;2023-07-28T04:45:53;19.40;99.90
10964;DHT22;5534;48.784;9.190;2023-07-28T04:48:19;19.50;99.90
10964;DHT22;5534;48.784;9.190;2023-07-28T04:50:45;19.60;99.90
10964;DHT22;5534;48.784;9.190;2023-07-28T04:53:11;19.60;99.90
10964;DHT22;5534;48.784;9.190;2023-07-28T04:55:36;19.60;99.90
10964;DHT22;5534;48.784;9.190;2023-07-28T04:58:02;19.60;99.90
10964;DHT22;5534;48.784;9.190;2023-07-28T05:00:28;19.50;99.90
10964;DHT22;5534;48.784;9.190;2023-07-28T05:02:54;19.60;99.90
10964;DHT22;5534;48.784;9.190;2023-07-28T05:05:20;19.70;99.90
10964;DHT22;5534;48.784;9.190;2023-07-28T05:07:45;19.70;99.90
10964;DHT22;5534;48.784;9.190;2023-07-28T05:10:12;19.70;99.90
10964;DHT22;5534;48.784;9.190;2023-07-28T05:12:40;19.70;99.90
10964;DHT22;5534;48.784;9.190;2023-07-28T05:15:06;19.70;99.90
10964;DHT22;5534;48.784;9.190;2023-07-28T05:17:36;19.60;99.90
10964;DHT22;5534;48.784;9.190;2023-07-28T05:20:03;19.60;99.90
10964;DHT22;5534;48.784;9.190;2023-07-28T05:22:28;19.40;99.90
10964;DHT22;5534;48.784;9.190;2023-07-28T05:24:54;19.20;99.90
10964;DHT22;5534;48.784;9.190;2023-07-28T05:27:20;19.30;99.90
10964;DHT22;5534;48.784;9.190;2023-07-28T05:29:46;19.40;99.90
10964;DHT22;5534;48.784;9.190;2023-07-28T05:32:12;19.50;99.90
10964;DHT22;5534;48.784;9.190;2023-07-28T05:34:37;19.40;99.90
10964;DHT22;5534;48.784;9.190;2023-07-28T05:37:04;19.30;99.90
10964;DHT22;5534;48.784;9.190;2023-07-28T05:39:30;19.30;99.90
10964;DHT22;5534;48.784;9.190;2023-07-28T05:41:55;19.20;99.90
10964;DHT22;5534;48.784;9.190;2023-07-28T05:44:21;19.20;99.90
10964;DHT22;5534;48.784;9.190;2023-07-28T05:46:47;19.40;99.90
10964;DHT22;5534;48.784;9.190;2023-07-28T05:49:14;19.50;99.90
10964;DHT22;5534;48.784;9.190;2023-07-28T05:52:02;19.50;99.90
10964;DHT22;5534;48.784;9.190;2023-07-28T05:54:32;19.60;99.90
10964;DHT22;5534;48.784;9.190;2023-07-28T05:56:58;19.60;99.90
10964;DHT22;5534;48.784;9.190;2023-07-28T05:59:23;19.60;99.90
10964;DHT22;5534;48.784;9.190;2023-07-28T06:01:49;19.60;99.90
10964;DHT22;5534;48.784;9.190;2023-07-28T06:04:15;19.60;99.90
10964;DHT22;5534;48.784;9.190;2023-07-28T06:06:40;19.50;99.90
10964;DHT22;5534;48.784;9.190;2023-07-28T06:09:06;19.40;99.90
10964;DHT22;5534;48.784;9.190;2023-07-28T06:11:32;19.50;99.90
10964;DHT22;5534;48.784;9.190;2023-07-28T06:13:57;19.60;99.90
10964;DHT22;5534;48.784;9.190;2023-07-28T06:16:23;19.50;99.90
10964;DHT22;5534;48.784;9.190;2023-07-28T06:18:49;19.40;99.90
10964;DHT22;5534;48.784;9.190;2023-07-28T06:21:15;19.50;99.90
10964;DHT22;5534;48.784;9.190;2023-07-28T06:23:41;19.50;99.90
10964;DHT22;5534;48.784;9.190;2023-07-28T06:26:07;19.40;99.90
10964;DHT22;5534;48.784;9.190;2023-07-28T06:28:33;19.50;99.90
10964;DHT22;5534;48.784;9.190;2023-07-28T06:30:58;19.40;99.90
10964;DHT22;5534;48.784;9.190;2023-07-28T06:33:28;19.50;99.90
10964;DHT22;5534;48.784;9.190;2023-07-28T06:35:54;19.60;99.90
10964;DHT22;5534;48.784;9.190;2023-07-28T06:38:20;19.60;99.90
10964;DHT22;5534;48.784;9.190;2023-07-28T06:40:46;19.60;99.90
10964;DHT22;5534;48.784;9.190;2023-07-28T06:43:12;19.60;99.90
10964;DHT22;5534;48.784;9.190;2023-07-28T06:45:38;19.60;99.90
10964;DHT22;5534;48.784;9.190;2023-07-28T06:48:04;19.70;99.90
10964;DHT22;5534;48.784;9.190;2023-07-28T06:50:30;19.70;99.90
10964;DHT22;5534;48.784;9.190;2023-07-28T06:52:55;19.60;99.90
10964;DHT22;5534;48.784;9.190;2023-07-28T06:55:23;19.40;99.90
10964;DHT22;5534;48.784;9.190;2023-07-28T06:57:48;19.50;99.90
10964;DHT22;5534;48.784;9.190;2023-07-28T07:00:15;19.70;99.90
10964;DHT22;5534;48.784;9.190;2023-07-28T07:02:41;19.80;99.90
10964;DHT22;5534;48.784;9.190;2023-07-28T07:05:07;19.80;99.90
10964;DHT22;5534;48.784;9.190;2023-07-28T07:07:33;19.90;99.90
10964;DHT22;5534;48.784;9.190;2023-07-28T07:09:58;20.00;99.90
10964;DHT22;5534;48.784;9.190;2023-07-28T07:12:25;20.00;99.90
10964;DHT22;5534;48.784;9.190;2023-07-28T07:14:51;20.00;99.90
10964;DHT22;5534;48.784;9.190;2023-07-28T07:17:17;20.00;99.90
10964;DHT22;5534;48.784;9.190;2023-07-28T07:19:43;20.10;99.90
10964;DHT22;5534;48.784;9.190;2023-07-28T07:22:09;20.10;99.90
10964;DHT22;5534;48.784;9.190;2023-07-28T07:24:35;20.10;99.90
10964;DHT22;5534;48.784;9.190;2023-07-28T07:27:01;20.00;99.90
10964;DHT22;5534;48.784;9.190;2023-07-28T07:29:26;19.80;99.90
10964;DHT22;5534;48.784;9.190;2023-07-28T07:31:52;19.90;99.90
10964;DHT22;5534;48.784;9.190;2023-07-28T07:34:22;20.10;99.90
10964;DHT22;5534;48.784;9.190;2023-07-28T07:36:47;20.20;99.90
10964;DHT22;5534;48.784;9.190;2023-07-28T07:39:13;20.30;99.90
10964;DHT22;5534;48.784;9.190;2023-07-28T07:41:39;20.40;99.90
10964;DHT22;5534;48.784;9.190;2023-07-28T07:44:04;20.50;99.90
10964;DHT22;5534;48.784;9.190;2023-07-28T07:46:30;20.60;99.90
10964;DHT22;5534;48.784;9.190;2023-07-28T07:48:56;20.70;99.90
10964;DHT22;5534;48.784;9.190;2023-07-28T07:51:23;20.80;99.90
10964;DHT22;5534;48.784;9.190;2023-07-28T07:53:48;20.90;99.90
10964;DHT22;5534;48.784;9.190;2023-07-28T07:56:15;20.80;99.90
10964;DHT22;5534;48.784;9.190;2023-07-28T07:58:40;20.80;99.90
10964;DHT22;5534;48.784;9.190;2023-07-28T08:01:06;20.70;99.90
10964;DHT22;5534;48.784;9.190;2023-07-28T08:03:32;20.70;99.90
10964;DHT22;5534;48.784;9.190;2023-07-28T08:05:58;20.80;99.90
10964;DHT22;5534;48.784;9.190;2023-07-28T08:08:24;20.70;99.90
10964;DHT22;5534;48.784;9.190;2023-07-28T08:10:50;20.80;99.90
10964;DHT22;5534;48.784;9.190;2023-07-28T08:13:16;20.90;99.90
10964;DHT22;5534;48.784;9.190;2023-07-28T08:15:46;20.90;99.90
10964;DHT22;5534;48.784;9.190;2023-07-28T08:18:15;20.90;99.90
10964;DHT22;5534;48.784;9.190;2023-07-28T08:20:41;20.80;99.90
10964;DHT22;5534;48.784;9.190;2023-07-28T08:23:06;20.70;99.90
10964;DHT22;5534;48.784;9.190;2023-07-28T08:25:33;20.60;99.90
10964;DHT22;5534;48.784;9.190;2023-07-28T08:28:00;20.60;99.90
10964;DHT22;5534;48.784;9.190;2023-07-28T08:30:26;20.60;99.90
10964;DHT22;5534;48.784;9.190;2023-07-28T08:32:52;20.50;99.90
10964;DHT22;5534;48.784;9.190;2023-07-28T08:35:17;20.50;99.90
10964;DHT22;5534;48.784;9.190;2023-07-28T08:37:43;20.40;99.90
10964;DHT22;5534;48.784;9.190;2023-07-28T08:40:10;20.60;99.90
10964;DHT22;5534;48.784;9.190;2023-07-28T08:42:39;20.80;99.90
10964;DHT22;5534;48.784;9.190;2023-07-28T08:45:07;20.90;99.90
10964;DHT22;5534;48.784;9.190;2023-07-28T08:47:35;20.90;99.90
10964;DHT22;5534;48.784;9.190;2023-07-28T08:50:04;21.00;99.90
10964;DHT22;5534;48.784;9.190;2023-07-28T08:52:31;21.00;99.90
10964;DHT22;5534;48.784;9.190;2023-07-28T08:54:58;20.90;99.90
10964;DHT22;5534;48.784;9.190;2023-07-28T08:57:27;21.00;99.90
10964;DHT22;5534;48.784;9.190;2023-07-28T08:59:53;21.20;99.90
10964;DHT22;5534;48.784;9.190;2023-07-28T09:02:19;21.30;99.90
10964;DHT22;5534;48.784;9.190;2023-07-28T09:04:47;21.20;99.90
10964;DHT22;5534;48.784;9.190;2023-07-28T09:07:14;21.20;99.90
10964;DHT22;5534;48.784;9.190;2023-07-28T09:09:40;21.30;99.90
10964;DHT22;5534;48.784;9.190;2023-07-28T09:12:09;21.20;99.90
10964;DHT22;5534;48.784;9.190;2023-07-28T09:14:36;21.20;99.90
10964;DHT22;5534;48.784;9.190;2023-07-28T09:17:10;21.20;99.90
10964;DHT22;5534;48.784;9.190;2023-07-28T09:19:55;21.20;99.90
10964;DHT22;5534;48.784;9.190;2023-07-28T09:22:21;21.20;99.90
10964;DHT22;5534;48.784;9.190;2023-07-28T09:24:48;21.10;99.90
10964;DHT22;5534;48.784;9.190;2023-07-28T09:27:24;21.10;99.90
10964;DHT22;5534;48.784;9.190;2023-07-28T09:29:51;21.10;99.90
10964;DHT22;5534;48.784;9.190;2023-07-28T09:32:29;21.20;99.90
10964;DHT22;5534;48.784;9.190;2023-07-28T09:35:11;21.10;99.90
10964;DHT22;5534;48.784;9.190;2023-07-28T09:37:39;21.10;99.90
10964;DHT22;5534;48.784;9.190;2023-07-28T09:40:09;21.30;99.90
10964;DHT22;5534;48.784;9.190;2023-07-28T09:42:41;21.30;99.90
10964;DHT22;5534;48.784;9.190;2023-07-28T09:45:11;21.40;99.90
10964;DHT22;5534;48.784;9.190;2023-07-28T09:47:37;21.50;99.90
10964;DHT22;5534;48.784;9.190;2023-07-28T09:50:05;21.50;99.90
10964;DHT22;5534;48.784;9.190;2023-07-28T09:52:38;21.70;99.90
10964;DHT22;5534;48.784;9.190;2023-07-28T09:55:08;21.80;99.90
10964;DHT22;5534;48.784;9.190;2023-07-28T09:57:44;21.90;99.90
10964;DHT22;5534;48.784;9.190;2023-07-28T10:00:12;21.80;99.90
10964;DHT22;5534;48.784;9.190;2023-07-28T10:02:39;21.90;99.90
10964;DHT22;5534;48.784;9.190;2023-07-28T10:05:06;21.90;99.90
10964;DHT22;5534;48.784;9.190;2023-07-28T10:07:40;21.80;99.90
10964;DHT22;5534;48.784;9.190;2023-07-28T10:10:08;21.70;99.90
10964;DHT22;5534;48.784;9.190;2023-07-28T10:12:51;21.70;99.90
10964;DHT22;5534;48.784;9.190;2023-07-28T10:15:22;21.80;99.90
10964;DHT22;5534;48.784;9.190;2023-07-28T10:17:57;21.90;99.90
10964;DHT22;5534;48.784;9.190;2023-07-28T10:23:07;21.80;99.90
10964;DHT22;5534;48.784;9.190;2023-07-28T10:25:34;21.90;99.90
10964;DHT22;5534;48.784;9.190;2023-07-28T10:28:01;21.90;99.90
10964;DHT22;5534;48.784;9.190;2023-07-28T10:30:28;22.00;99.90
10964;DHT22;5534;48.784;9.190;2023-07-28T10:32:55;21.90;99.90
10964;DHT22;5534;48.784;9.190;2023-07-28T10:35:26;21.70;99.90
10964;DHT22;5534;48.784;9.190;2023-07-28T10:37:54;21.80;99.90
10964;DHT22;5534;48.784;9.190;2023-07-28T10:40:31;21.70;99.90
10964;DHT22;5534;48.784;9.190;2023-07-28T10:42:58;21.80;99.90
10964;DHT22;5534;48.784;9.190;2023-07-28T10:45:26;22.00;99.90
10964;DHT22;5534;48.784;9.190;2023-07-28T10:47:58;22.10;99.90
10964;DHT22;5534;48.784;9.190;2023-07-28T10:50:32;22.10;99.90
10964;DHT22;5534;48.784;9.190;2023-07-28T10:52:58;22.00;99.90
10964;DHT22;5534;48.784;9.190;2023-07-28T10:55:25;22.00;99.90
10964;DHT22;5534;48.784;9.190;2023-07-28T10:57:53;21.90;99.90
10964;DHT22;5534;48.784;9.190;2023-07-28T11:00:20;21.90;99.90
10964;DHT22;5534;48.784;9.190;2023-07-28T11:02:51;22.00;99.90
10964;DHT22;5534;48.784;9.190;2023-07-28T11:05:26;22.30;99.90
10964;DHT22;5534;48.784;9.190;2023-07-28T11:07:55;22.40;99.90
10964;DHT22;5534;48.784;9.190;2023-07-28T11:10:21;22.50;99.90
10964;DHT22;5534;48.784;9.190;2023-07-28T11:12:49;22.60;99.90
10964;DHT22;5534;48.784;9.190;2023-07-28T11:15:17;22.60;99.90
10964;DHT22;5534;48.784;9.190;2023-07-28T11:17:46;22.70;99.90
10964;DHT22;5534;48.784;9.190;2023-07-28T11:20:19;22.80;99.90
10964;DHT22;5534;48.784;9.190;2023-07-28T11:22:46;22.80;99.90
10964;DHT22;5534;48.784;9.190;2023-07-28T11:25:13;22.90;99.90
10964;DHT22;5534;48.784;9.190;2023-07-28T11:27:39;22.90;99.90
10964;DHT22;5534;48.784;9.190;2023-07-28T11:30:07;23.00;99.90
10964;DHT22;5534;48.784;9.190;2023-07-28T11:32:36;23.10;99.90
10964;DHT22;5534;48.784;9.190;2023-07-28T11:35:09;23.10;99.90
10964;DHT22;5534;48.784;9.190;2023-07-28T11:37:36;23.30;99.90
10964;DHT22;5534;48.784;9.190;2023-07-28T11:40:04;23.20;99.90
10964;DHT22;5534;48.784;9.190;2023-07-28T11:42:54;23.30;99.90
10964;DHT22;5534;48.784;9.190;2023-07-28T11:45:20;23.40;99.90
10964;DHT22;5534;48.784;9.190;2023-07-28T11:47:54;23.40;99.90
10964;DHT22;5534;48.784;9.190;2023-07-28T11:50:25;23.40;99.90
10964;DHT22;5534;48.784;9.190;2023-07-28T11:52:51;23.60;99.90
10964;DHT22;5534;48.784;9.190;2023-07-28T11:55:18;23.60;99.90
10964;DHT22;5534;48.784;9.190;2023-07-28T11:57:44;23.50;99.90
10964;DHT22;5534;48.784;9.190;2023-07-28T12:00:10;23.50;99.90
10964;DHT22;5534;48.784;9.190;2023-07-28T12:02:38;23.60;99.90
10964;DHT22;5534;48.784;9.190;2023-07-28T12:05:12;23.50;99.90
10964;DHT22;5534;48.784;9.190;2023-07-28T12:07:38;23.30;99.90
10964;DHT22;5534;48.784;9.190;2023-07-28T12:10:05;23.20;99.90
10964;DHT22;5534;48.784;9.190;2023-07-28T12:12:43;23.30;99.90
10964;DHT22;5534;48.784;9.190;2023-07-28T12:15:20;23.20;99.90
10964;DHT22;5534;48.784;9.190;2023-07-28T12:18:12;22.80;99.90
10964;DHT22;5534;48.784;9.190;2023-07-28T12:23:08;22.60;99.90
10964;DHT22;5534;48.784;9.190;2023-07-28T12:25:36;22.50;99.90
10964;DHT22;5534;48.784;9.190;2023-07-28T12:28:03;22.60;99.90
10964;DHT22;5534;48.784;9.190;2023-07-28T12:30:35;22.70;99.90
10964;DHT22;5534;48.784;9.190;2023-07-28T12:33:01;22.60;99.90
10964;DHT22;5534;48.784;9.190;2023-07-28T12:35:28;22.70;99.90
10964;DHT22;5534;48.784;9.190;2023-07-28T12:38:00;22.70;99.90
10964;DHT22;5534;48.784;9.190;2023-07-28T12:40:27;22.60;99.90
10964;DHT22;5534;48.784;9.190;2023-07-28T12:42:53;22.70;99.90
10964;DHT22;5534;48.784;9.190;2023-07-28T12:45:20;22.80;99.90
10964;DHT22;5534;48.784;9.190;2023-07-28T12:47:47;22.90;99.90
10964;DHT22;5534;48.784;9.190;2023-07-28T12:50:12;23.00;99.90
10964;DHT22;5534;48.784;9.190;2023-07-28T12:52:38;23.10;99.90
10964;DHT22;5534;48.784;9.190;2023-07-28T12:55:04;23.10;99.90
10964;DHT22;5534;48.784;9.190;2023-07-28T12:57:31;23.00;99.90
10964;DHT22;5534;48.784;9.190;2023-07-28T12:59:57;23.10;99.90
10964;DHT22;5534;48.784;9.190;2023-07-28T13:02:23;23.00;99.90
10964;DHT22;5534;48.784;9.190;2023-07-28T13:04:49;23.00;99.90
10964;DHT22;5534;48.784;9.190;2023-07-28T13:07:14;23.10;99.90
10964;DHT22;5534;48.784;9.190;2023-07-28T13:09:40;23.00;99.90
10964;DHT22;5534;48.784;9.190;2023-07-28T13:12:07;23.00;99.90
10964;DHT22;5534;48.784;9.190;2023-07-28T13:14:33;23.00;99.90
10964;DHT22;5534;48.784;9.190;2023-07-28T13:16:59;22.90;99.90
10964;DHT22;5534;48.784;9.190;2023-07-28T13:19:25;22.90;99.90
10964;DHT22;5534;48.784;9.190;2023-07-28T13:21:51;22.80;99.90
10964;DHT22;5534;48.784;9.190;2023-07-28T13:24:16;22.90;99.90
10964;DHT22;5534;48.784;9.190;2023-07-28T13:26:42;22.90;99.90
10964;DHT22;5534;48.784;9.190;2023-07-28T13:29:08;22.90;99.90
10964;DHT22;5534;48.784;9.190;2023-07-28T13:31:33;22.80;99.90
10964;DHT22;5534;48.784;9.190;2023-07-28T13:33:59;23.00;99.90
10964;DHT22;5534;48.784;9.190;2023-07-28T13:36:25;22.80;99.90
10964;DHT22;5534;48.784;9.190;2023-07-28T13:38:51;22.80;99.90
10964;DHT22;5534;48.784;9.190;2023-07-28T13:41:17;22.70;99.90
10964;DHT22;5534;48.784;9.190;2023-07-28T13:43:42;22.60;99.90
10964;DHT22;5534;48.784;9.190;2023-07-28T13:46:08;22.40;99.90
10964;DHT22;5534;48.784;9.190;2023-07-28T13:48:34;22.20;99.90
10964;DHT22;5534;48.784;9.190;2023-07-28T13:51:04;22.00;99.90
10964;DHT22;5534;48.784;9.190;2023-07-28T13:53:30;21.90;99.90
10964;DHT22;5534;48.784;9.190;2023-07-28T13:56:02;21.70;99.90
10964;DHT22;5534;48.784;9.190;2023-07-28T13:58:29;21.50;99.90
10964;DHT22;5534;48.784;9.190;2023-07-28T14:00:54;21.40;99.90
10964;DHT22;5534;48.784;9.190;2023-07-28T14:03:20;21.20;99.90
10964;DHT22;5534;48.784;9.190;2023-07-28T14:05:46;20.90;99.90
10964;DHT22;5534;48.784;9.190;2023-07-28T14:08:12;20.80;99.90
10964;DHT22;5534;48.784;9.190;2023-07-28T14:10:38;20.80;99.90
10964;DHT22;5534;48.784;9.190;2023-07-28T14:13:04;20.80;99.90
10964;DHT22;5534;48.784;9.190;2023-07-28T14:15:29;20.70;99.90
10964;DHT22;5534;48.784;9.190;2023-07-28T14:17:55;20.40;99.90
10964;DHT22;5534;48.784;9.190;2023-07-28T14:20:21;20.30;99.90
10964;DHT22;5534;48.784;9.190;2023-07-28T14:22:47;20.30;99.90
10964;DHT22;5534;48.784;9.190;2023-07-28T14:25:12;20.30;99.90
10964;DHT22;5534;48.784;9.190;2023-07-28T14:27:38;20.30;99.90
10964;DHT22;5534;48.784;9.190;2023-07-28T14:30:04;20.40;99.90
10964;DHT22;5534;48.784;9.190;2023-07-28T14:32:30;20.40;99.90
10964;DHT22;5534;48.784;9.190;2023-07-28T14:34:56;20.40;99.90
10964;DHT22;5534;48.784;9.190;2023-07-28T14:37:21;20.60;99.90
10964;DHT22;5534;48.784;9.190;2023-07-28T14:39:47;20.60;99.90
10964;DHT22;5534;48.784;9.190;2023-07-28T14:42:13;20.70;99.90
10964;DHT22;5534;48.784;9.190;2023-07-28T14:44:39;20.70;99.90
10964;DHT22;5534;48.784;9.190;2023-07-28T14:47:04;20.70;99.90
10964;DHT22;5534;48.784;9.190;2023-07-28T14:49:30;20.70;99.90
10964;DHT22;5534;48.784;9.190;2023-07-28T14:51:56;20.60;99.90
10964;DHT22;5534;48.784;9.190;2023-07-28T14:54:22;20.50;99.90
10964;DHT22;5534;48.784;9.190;2023-07-28T14:56:47;20.50;99.90
10964;DHT22;5534;48.784;9.190;2023-07-28T14:59:13;20.60;99.90
10964;DHT22;5534;48.784;9.190;2023-07-28T15:01:39;20.70;99.90
10964;DHT22;5534;48.784;9.190;2023-07-28T15:04:05;20.80;99.90
10964;DHT22;5534;48.784;9.190;2023-07-28T15:06:31;20.80;99.90
10964;DHT22;5534;48.784;9.190;2023-07-28T15:08:57;20.90;99.90
10964;DHT22;5534;48.784;9.190;2023-07-28T15:11:23;21.00;99.90
10964;DHT22;5534;48.784;9.190;2023-07-28T15:13:51;21.00;99.90
10964;DHT22;5534;48.784;9.190;2023-07-28T15:16:16;21.00;99.90
10964;DHT22;5534;48.784;9.190;2023-07-28T15:18:42;21.10;99.90
10964;DHT22;5534;48.784;9.190;2023-07-28T15:21:08;21.20;99.90
10964;DHT22;5534;48.784;9.190;2023-07-28T15:23:35;21.30;99.90
10964;DHT22;5534;48.784;9.190;2023-07-28T15:26:01;21.30;99.90
10964;DHT22;5534;48.784;9.190;2023-07-28T15:28:27;21.30;99.90
10964;DHT22;5534;48.784;9.190;2023-07-28T15:30:52;21.30;99.90
10964;DHT22;5534;48.784;9.190;2023-07-28T15:33:21;21.30;99.90
10964;DHT22;5534;48.784;9.190;2023-07-28T15:35:56;21.40;99.90
10964;DHT22;5534;48.784;9.190;2023-07-28T15:38:29;21.50;99.90
10964;DHT22;5534;48.784;9.190;2023-07-28T15:40:55;21.40;99.90
10964;DHT22;5534;48.784;9.190;2023-07-28T15:43:23;21.40;99.90
10964;DHT22;5534;48.784;9.190;2023-07-28T15:45:49;21.30;99.90
10964;DHT22;5534;48.784;9.190;2023-07-28T15:48:19;21.20;99.90
10964;DHT22;5534;48.784;9.190;2023-07-28T15:50:44;21.20;99.90
10964;DHT22;5534;48.784;9.190;2023-07-28T15:53:10;21.20;99.90
10964;DHT22;5534;48.784;9.190;2023-07-28T15:55:36;21.10;99.90